sensor_id;sensor_type;location;lat;lon;timestamp;P1;durP1;ratioP1;P2;durP2;ratioP2
31974;SDS011;18500;43.618;1.474;2024-01-06T08:27:03;616.65;;;576.60;;
31974;SDS011;18500;43.618;1.474;2024-01-06T08:29:29;566.03;;;529.05;;
31974;SDS011;18500;43.618;1.474;2024-01-06T08:31:55;593.55;;;554.33;;
31974;SDS011;18500;43.618;1.474;2024-01-06T08:34:21;566.47;;;529.38;;
31974;SDS011;18500;43.618;1.474;2024-01-06T08:36:47;562.30;;;525.40;;
31974;SDS011;18500;43.618;1.474;2024-01-06T08:39:12;559.13;;;522.15;;
31974;SDS011;18500;43.618;1.474;2024-01-06T08:41:38;593.00;;;550.70;;
31974;SDS011;18500;43.618;1.474;2024-01-06T08:44:04;551.53;;;514.47;;
31974;SDS011;18500;43.618;1.474;2024-01-06T08:46:30;588.90;;;549.78;;
31974;SDS011;18500;43.618;1.474;2024-01-06T08:48:56;560.13;;;522.78;;
31974;SDS011;18500;43.618;1.474;2024-01-06T08:51:22;558.75;;;520.97;;
31974;SDS011;18500;43.618;1.474;2024-01-06T08:53:49;592.33;;;552.03;;
31974;SDS011;18500;43.618;1.474;2024-01-06T08:56:14;606.53;;;566.22;;
31974;SDS011;18500;43.618;1.474;2024-01-06T08:58:42;580.47;;;541.17;;
31974;SDS011;18500;43.618;1.474;2024-01-06T09:01:08;600.22;;;559.60;;
31974;SDS011;18500;43.618;1.474;2024-01-06T09:03:34;593.88;;;551.90;;
31974;SDS011;18500;43.618;1.474;2024-01-06T09:06:00;591.38;;;552.10;;
31974;SDS011;18500;43.618;1.474;2024-01-06T09:08:25;620.00;;;578.60;;
31974;SDS011;18500;43.618;1.474;2024-01-06T09:10:51;646.58;;;602.50;;
31974;SDS011;18500;43.618;1.474;2024-01-06T09:13:20;661.10;;;616.47;;
31974;SDS011;18500;43.618;1.474;2024-01-06T09:15:46;678.53;;;630.55;;
31974;SDS011;18500;43.618;1.474;2024-01-06T09:18:12;705.70;;;656.08;;
31974;SDS011;18500;43.618;1.474;2024-01-06T09:20:38;718.72;;;668.88;;
31974;SDS011;18500;43.618;1.474;2024-01-06T09:23:04;724.35;;;673.60;;
31974;SDS011;18500;43.618;1.474;2024-01-06T09:25:29;710.25;;;660.70;;
31974;SDS011;18500;43.618;1.474;2024-01-06T09:27:55;726.20;;;675.90;;
31974;SDS011;18500;43.618;1.474;2024-01-06T09:30:21;757.20;;;704.10;;
31974;SDS011;18500;43.618;1.474;2024-01-06T09:32:46;750.28;;;696.72;;
31974;SDS011;18500;43.618;1.474;2024-01-06T09:35:12;762.50;;;708.97;;
31974;SDS011;18500;43.618;1.474;2024-01-06T09:37:37;709.03;;;659.47;;
31974;SDS011;18500;43.618;1.474;2024-01-06T09:40:03;694.85;;;646.78;;
31974;SDS011;18500;43.618;1.474;2024-01-06T09:42:29;695.45;;;647.17;;
31974;SDS011;18500;43.618;1.474;2024-01-06T09:44:55;703.13;;;654.72;;
31974;SDS011;18500;43.618;1.474;2024-01-06T09:47:21;672.83;;;627.10;;
31974;SDS011;18500;43.618;1.474;2024-01-06T09:49:49;704.47;;;656.13;;
31974;SDS011;18500;43.618;1.474;2024-01-06T09:52:15;665.53;;;619.92;;
31974;SDS011;18500;43.618;1.474;2024-01-06T09:54:46;666.88;;;621.17;;
31974;SDS011;18500;43.618;1.474;2024-01-06T09:57:18;689.75;;;643.03;;
31974;SDS011;18500;43.618;1.474;2024-01-06T09:59:44;691.83;;;645.17;;
31974;SDS011;18500;43.618;1.474;2024-01-06T10:02:09;695.70;;;647.72;;
31974;SDS011;18500;43.618;1.474;2024-01-06T10:04:40;684.50;;;637.15;;
31974;SDS011;18500;43.618;1.474;2024-01-06T10:07:07;675.00;;;628.50;;
31974;SDS011;18500;43.618;1.474;2024-01-06T10:09:33;684.30;;;635.22;;
31974;SDS011;18500;43.618;1.474;2024-01-06T10:11:58;669.72;;;624.10;;
31974;SDS011;18500;43.618;1.474;2024-01-06T10:14:24;690.22;;;642.50;;
31974;SDS011;18500;43.618;1.474;2024-01-06T10:16:53;679.85;;;632.45;;
31974;SDS011;18500;43.618;1.474;2024-01-06T10:19:19;679.05;;;631.90;;
31974;SDS011;18500;43.618;1.474;2024-01-06T10:21:45;701.05;;;652.55;;
31974;SDS011;18500;43.618;1.474;2024-01-06T10:24:11;670.25;;;624.33;;
31974;SDS011;18500;43.618;1.474;2024-01-06T10:26:36;708.72;;;660.33;;
31974;SDS011;18500;43.618;1.474;2024-01-06T10:29:03;681.58;;;633.88;;
31974;SDS011;18500;43.618;1.474;2024-01-06T10:31:29;700.90;;;652.00;;
31974;SDS011;18500;43.618;1.474;2024-01-06T10:33:55;670.25;;;622.67;;
31974;SDS011;18500;43.618;1.474;2024-01-06T10:36:23;669.70;;;622.67;;
31974;SDS011;18500;43.618;1.474;2024-01-06T10:38:52;680.65;;;633.65;;
31974;SDS011;18500;43.618;1.474;2024-01-06T10:41:17;675.47;;;628.15;;
31974;SDS011;18500;43.618;1.474;2024-01-06T10:43:45;685.90;;;637.85;;
31974;SDS011;18500;43.618;1.474;2024-01-06T10:46:13;659.22;;;614.13;;
31974;SDS011;18500;43.618;1.474;2024-01-06T10:48:41;645.90;;;602.15;;
31974;SDS011;18500;43.618;1.474;2024-01-06T10:51:11;663.88;;;615.03;;
31974;SDS011;18500;43.618;1.474;2024-01-06T10:53:39;695.38;;;644.70;;
31974;SDS011;18500;43.618;1.474;2024-01-06T10:56:06;647.40;;;599.33;;
31974;SDS011;18500;43.618;1.474;2024-01-06T10:58:33;697.03;;;644.28;;
31974;SDS011;18500;43.618;1.474;2024-01-06T11:01:02;820.70;;;752.88;;
31974;SDS011;18500;43.618;1.474;2024-01-06T11:03:29;707.75;;;653.70;;
31974;SDS011;18500;43.618;1.474;2024-01-06T11:05:55;800.28;;;736.15;;
31974;SDS011;18500;43.618;1.474;2024-01-06T11:08:22;748.63;;;688.83;;
31974;SDS011;18500;43.618;1.474;2024-01-06T11:10:50;753.60;;;693.30;;
31974;SDS011;18500;43.618;1.474;2024-01-06T11:13:20;877.25;;;803.33;;
31974;SDS011;18500;43.618;1.474;2024-01-06T11:15:48;877.25;;;802.42;;
31974;SDS011;18500;43.618;1.474;2024-01-06T11:18:30;869.83;;;799.97;;
31974;SDS011;18500;43.618;1.474;2024-01-06T11:26:31;737.83;;;677.90;;
31974;SDS011;18500;43.618;1.474;2024-01-06T11:28:57;794.97;;;725.90;;
31974;SDS011;18500;43.618;1.474;2024-01-06T11:31:32;849.40;;;775.78;;
31974;SDS011;18500;43.618;1.474;2024-01-06T11:33:58;875.58;;;798.92;;
31974;SDS011;18500;43.618;1.474;2024-01-06T11:36:44;802.97;;;734.55;;
31974;SDS011;18500;43.618;1.474;2024-01-06T11:42:04;1003.80;;;914.40;;
31974;SDS011;18500;43.618;1.474;2024-01-06T11:44:33;859.45;;;783.85;;
31974;SDS011;18500;43.618;1.474;2024-01-06T11:46:59;911.33;;;828.22;;
31974;SDS011;18500;43.618;1.474;2024-01-06T11:49:26;884.92;;;806.05;;
31974;SDS011;18500;43.618;1.474;2024-01-06T11:51:58;877.35;;;798.60;;
31974;SDS011;18500;43.618;1.474;2024-01-06T11:54:25;878.40;;;797.97;;
31974;SDS011;18500;43.618;1.474;2024-01-06T11:56:50;1029.72;;;934.67;;
31974;SDS011;18500;43.618;1.474;2024-01-06T11:59:19;951.35;;;862.95;;
31974;SDS011;18500;43.618;1.474;2024-01-06T12:01:45;926.75;;;842.10;;
31974;SDS011;18500;43.618;1.474;2024-01-06T12:04:13;950.03;;;866.25;;
31974;SDS011;18500;43.618;1.474;2024-01-06T12:06:40;965.60;;;878.08;;
31974;SDS011;18500;43.618;1.474;2024-01-06T12:09:06;931.10;;;850.40;;
31974;SDS011;18500;43.618;1.474;2024-01-06T12:11:33;936.75;;;854.35;;
31974;SDS011;18500;43.618;1.474;2024-01-06T12:13:59;970.15;;;883.33;;
31974;SDS011;18500;43.618;1.474;2024-01-06T12:16:24;914.17;;;837.55;;
31974;SDS011;18500;43.618;1.474;2024-01-06T12:18:55;885.15;;;810.50;;
31974;SDS011;18500;43.618;1.474;2024-01-06T12:21:25;968.65;;;878.55;;
31974;SDS011;18500;43.618;1.474;2024-01-06T12:23:51;863.05;;;790.58;;
31974;SDS011;18500;43.618;1.474;2024-01-06T12:26:17;1004.97;;;910.30;;
31974;SDS011;18500;43.618;1.474;2024-01-06T12:28:46;976.55;;;889.60;;
31974;SDS011;18500;43.618;1.474;2024-01-06T12:31:13;992.42;;;897.17;;
31974;SDS011;18500;43.618;1.474;2024-01-06T12:33:39;1000.13;;;906.17;;
31974;SDS011;18500;43.618;1.474;2024-01-06T12:36:09;850.47;;;781.75;;
31974;SDS011;18500;43.618;1.474;2024-01-06T12:38:36;759.70;;;699.13;;
31974;SDS011;18500;43.618;1.474;2024-01-06T12:41:03;826.55;;;757.70;;
31974;SDS011;18500;43.618;1.474;2024-01-06T12:43:30;803.80;;;739.00;;
31974;SDS011;18500;43.618;1.474;2024-01-06T12:45:55;820.97;;;756.83;;
31974;SDS011;18500;43.618;1.474;2024-01-06T12:48:23;724.92;;;671.53;;
31974;SDS011;18500;43.618;1.474;2024-01-06T12:50:48;797.95;;;731.25;;
31974;SDS011;18500;43.618;1.474;2024-01-06T12:53:14;777.35;;;718.00;;
31974;SDS011;18500;43.618;1.474;2024-01-06T12:55:43;776.92;;;712.67;;
31974;SDS011;18500;43.618;1.474;2024-01-06T12:58:09;774.67;;;716.42;;
31974;SDS011;18500;43.618;1.474;2024-01-06T13:00:35;716.67;;;663.90;;
31974;SDS011;18500;43.618;1.474;2024-01-06T13:03:00;752.15;;;692.15;;
31974;SDS011;18500;43.618;1.474;2024-01-06T13:05:26;799.95;;;730.63;;
31974;SDS011;18500;43.618;1.474;2024-01-06T13:07:51;648.78;;;599.13;;
31974;SDS011;18500;43.618;1.474;2024-01-06T13:10:17;644.10;;;596.58;;
31974;SDS011;18500;43.618;1.474;2024-01-06T13:12:43;659.30;;;612.13;;
31974;SDS011;18500;43.618;1.474;2024-01-06T13:15:09;715.33;;;661.88;;
31974;SDS011;18500;43.618;1.474;2024-01-06T13:17:36;802.60;;;739.55;;
31974;SDS011;18500;43.618;1.474;2024-01-06T13:20:04;737.03;;;682.88;;
31974;SDS011;18500;43.618;1.474;2024-01-06T13:22:31;816.17;;;750.70;;
31974;SDS011;18500;43.618;1.474;2024-01-06T13:24:56;718.95;;;664.92;;
31974;SDS011;18500;43.618;1.474;2024-01-06T13:27:24;808.63;;;746.92;;
31974;SDS011;18500;43.618;1.474;2024-01-06T13:29:50;813.58;;;748.53;;
31974;SDS011;18500;43.618;1.474;2024-01-06T13:32:16;672.65;;;623.05;;
31974;SDS011;18500;43.618;1.474;2024-01-06T13:34:44;732.10;;;677.63;;
31974;SDS011;18500;43.618;1.474;2024-01-06T13:37:09;744.65;;;688.95;;
31974;SDS011;18500;43.618;1.474;2024-01-06T13:39:35;703.05;;;651.03;;
31974;SDS011;18500;43.618;1.474;2024-01-06T13:42:01;780.85;;;722.00;;
31974;SDS011;18500;43.618;1.474;2024-01-06T13:44:28;797.17;;;738.25;;
31974;SDS011;18500;43.618;1.474;2024-01-06T13:46:54;813.40;;;751.65;;
31974;SDS011;18500;43.618;1.474;2024-01-06T13:49:21;791.95;;;731.67;;
31974;SDS011;18500;43.618;1.474;2024-01-06T13:51:47;965.35;;;883.13;;
31974;SDS011;18500;43.618;1.474;2024-01-06T13:54:13;796.75;;;734.83;;
31974;SDS011;18500;43.618;1.474;2024-01-06T13:56:39;885.30;;;811.15;;
31974;SDS011;18500;43.618;1.474;2024-01-06T13:59:05;940.25;;;861.53;;
31974;SDS011;18500;43.618;1.474;2024-01-06T14:01:31;967.45;;;882.50;;
31974;SDS011;18500;43.618;1.474;2024-01-06T14:03:57;893.15;;;816.70;;
31974;SDS011;18500;43.618;1.474;2024-01-06T14:06:26;947.13;;;867.67;;
31974;SDS011;18500;43.618;1.474;2024-01-06T14:08:55;1101.47;;;996.65;;
31974;SDS011;18500;43.618;1.474;2024-01-06T14:11:21;1041.72;;;945.53;;
31974;SDS011;18500;43.618;1.474;2024-01-06T14:13:47;893.17;;;821.63;;
31974;SDS011;18500;43.618;1.474;2024-01-06T14:16:14;929.90;;;854.63;;
31974;SDS011;18500;43.618;1.474;2024-01-06T14:18:40;921.85;;;848.50;;
31974;SDS011;18500;43.618;1.474;2024-01-06T14:21:08;1004.63;;;917.55;;
31974;SDS011;18500;43.618;1.474;2024-01-06T14:23:39;930.70;;;855.00;;
31974;SDS011;18500;43.618;1.474;2024-01-06T14:26:05;921.28;;;843.00;;
31974;SDS011;18500;43.618;1.474;2024-01-06T14:28:31;904.80;;;828.90;;
31974;SDS011;18500;43.618;1.474;2024-01-06T14:30:56;830.72;;;766.22;;
31974;SDS011;18500;43.618;1.474;2024-01-06T14:33:22;973.90;;;888.72;;
31974;SDS011;18500;43.618;1.474;2024-01-06T14:35:48;935.30;;;854.05;;
31974;SDS011;18500;43.618;1.474;2024-01-06T14:38:14;951.20;;;868.47;;
31974;SDS011;18500;43.618;1.474;2024-01-06T14:40:40;977.05;;;891.13;;
31974;SDS011;18500;43.618;1.474;2024-01-06T14:43:05;934.38;;;857.00;;
31974;SDS011;18500;43.618;1.474;2024-01-06T14:45:31;749.47;;;691.95;;
31974;SDS011;18500;43.618;1.474;2024-01-06T14:47:57;918.05;;;839.85;;
31974;SDS011;18500;43.618;1.474;2024-01-06T14:50:23;904.13;;;828.95;;
31974;SDS011;18500;43.618;1.474;2024-01-06T14:52:48;953.05;;;871.15;;
31974;SDS011;18500;43.618;1.474;2024-01-06T14:55:14;924.00;;;842.90;;
31974;SDS011;18500;43.618;1.474;2024-01-06T14:57:40;995.25;;;907.13;;
31974;SDS011;18500;43.618;1.474;2024-01-06T15:00:06;928.38;;;853.53;;
31974;SDS011;18500;43.618;1.474;2024-01-06T15:02:35;962.65;;;885.35;;
31974;SDS011;18500;43.618;1.474;2024-01-06T15:05:04;908.50;;;838.45;;
31974;SDS011;18500;43.618;1.474;2024-01-06T15:07:31;897.08;;;830.72;;
31974;SDS011;18500;43.618;1.474;2024-01-06T15:09:57;909.75;;;838.15;;
31974;SDS011;18500;43.618;1.474;2024-01-06T15:12:26;915.40;;;843.55;;
31974;SDS011;18500;43.618;1.474;2024-01-06T15:14:52;1002.65;;;917.85;;
31974;SDS011;18500;43.618;1.474;2024-01-06T15:17:18;936.38;;;862.13;;
31974;SDS011;18500;43.618;1.474;2024-01-06T15:19:44;878.38;;;806.67;;
31974;SDS011;18500;43.618;1.474;2024-01-06T15:22:10;1003.08;;;914.05;;
31974;SDS011;18500;43.618;1.474;2024-01-06T15:24:36;1021.83;;;931.28;;
31974;SDS011;18500;43.618;1.474;2024-01-06T15:27:03;898.67;;;827.22;;
31974;SDS011;18500;43.618;1.474;2024-01-06T15:29:28;830.47;;;763.55;;
31974;SDS011;18500;43.618;1.474;2024-01-06T15:31:54;859.25;;;788.33;;
31974;SDS011;18500;43.618;1.474;2024-01-06T15:34:23;769.72;;;708.75;;
31974;SDS011;18500;43.618;1.474;2024-01-06T15:36:49;870.45;;;803.28;;
31974;SDS011;18500;43.618;1.474;2024-01-06T15:39:15;808.95;;;747.78;;
31974;SDS011;18500;43.618;1.474;2024-01-06T15:41:41;851.65;;;783.38;;
31974;SDS011;18500;43.618;1.474;2024-01-06T15:44:06;908.20;;;832.00;;
31974;SDS011;18500;43.618;1.474;2024-01-06T15:46:32;727.90;;;675.80;;
31974;SDS011;18500;43.618;1.474;2024-01-06T15:48:58;846.10;;;780.88;;
31974;SDS011;18500;43.618;1.474;2024-01-06T15:51:24;733.05;;;676.13;;
31974;SDS011;18500;43.618;1.474;2024-01-06T15:53:49;791.60;;;728.42;;
31974;SDS011;18500;43.618;1.474;2024-01-06T15:56:15;857.67;;;788.22;;
31974;SDS011;18500;43.618;1.474;2024-01-06T15:58:41;701.90;;;649.58;;
31974;SDS011;18500;43.618;1.474;2024-01-06T16:01:07;604.42;;;558.75;;
31974;SDS011;18500;43.618;1.474;2024-01-06T16:03:32;629.05;;;579.05;;
31974;SDS011;18500;43.618;1.474;2024-01-06T16:05:58;784.65;;;719.42;;
31974;SDS011;18500;43.618;1.474;2024-01-06T16:08:24;705.30;;;652.83;;
31974;SDS011;18500;43.618;1.474;2024-01-06T16:10:50;793.95;;;722.30;;
31974;SDS011;18500;43.618;1.474;2024-01-06T16:13:16;771.63;;;707.75;;
31974;SDS011;18500;43.618;1.474;2024-01-06T16:15:43;767.72;;;707.42;;
31974;SDS011;18500;43.618;1.474;2024-01-06T16:18:10;753.28;;;694.95;;
31974;SDS011;18500;43.618;1.474;2024-01-06T16:20:36;761.95;;;705.53;;
31974;SDS011;18500;43.618;1.474;2024-01-06T16:23:01;763.45;;;705.25;;
31974;SDS011;18500;43.618;1.474;2024-01-06T16:25:28;730.80;;;672.35;;
31974;SDS011;18500;43.618;1.474;2024-01-06T16:27:54;602.63;;;561.03;;
31974;SDS011;18500;43.618;1.474;2024-01-06T16:30:20;844.63;;;769.42;;
31974;SDS011;18500;43.618;1.474;2024-01-06T16:32:46;692.67;;;638.60;;
31974;SDS011;18500;43.618;1.474;2024-01-06T16:35:12;778.80;;;707.40;;
31974;SDS011;18500;43.618;1.474;2024-01-06T16:37:38;802.22;;;734.85;;
31974;SDS011;18500;43.618;1.474;2024-01-06T16:40:06;864.03;;;786.58;;
31974;SDS011;18500;43.618;1.474;2024-01-06T16:42:35;881.75;;;799.17;;
31974;SDS011;18500;43.618;1.474;2024-01-06T16:45:07;809.92;;;736.65;;
31974;SDS011;18500;43.618;1.474;2024-01-06T16:47:32;839.38;;;759.38;;
31974;SDS011;18500;43.618;1.474;2024-01-06T16:49:58;869.42;;;788.20;;
31974;SDS011;18500;43.618;1.474;2024-01-06T16:52:24;871.97;;;790.80;;
31974;SDS011;18500;43.618;1.474;2024-01-06T16:54:50;678.78;;;623.40;;
31974;SDS011;18500;43.618;1.474;2024-01-06T16:57:15;750.65;;;692.92;;
31974;SDS011;18500;43.618;1.474;2024-01-06T16:59:41;838.22;;;763.33;;
31974;SDS011;18500;43.618;1.474;2024-01-06T17:02:07;817.42;;;745.08;;
31974;SDS011;18500;43.618;1.474;2024-01-06T17:04:32;749.05;;;684.67;;
31974;SDS011;18500;43.618;1.474;2024-01-06T17:07:00;755.50;;;690.38;;
31974;SDS011;18500;43.618;1.474;2024-01-06T17:09:27;776.33;;;706.95;;
31974;SDS011;18500;43.618;1.474;2024-01-06T17:11:53;784.30;;;716.95;;
31974;SDS011;18500;43.618;1.474;2024-01-06T17:14:18;801.75;;;729.30;;
31974;SDS011;18500;43.618;1.474;2024-01-06T17:16:44;683.78;;;629.38;;
31974;SDS011;18500;43.618;1.474;2024-01-06T17:19:10;834.60;;;757.83;;
31974;SDS011;18500;43.618;1.474;2024-01-06T17:21:37;707.17;;;647.63;;
31974;SDS011;18500;43.618;1.474;2024-01-06T17:24:03;763.50;;;699.50;;
31974;SDS011;18500;43.618;1.474;2024-01-06T17:26:29;751.75;;;688.22;;
31974;SDS011;18500;43.618;1.474;2024-01-06T17:28:55;686.42;;;630.67;;
31974;SDS011;18500;43.618;1.474;2024-01-06T17:31:21;829.15;;;753.30;;
31974;SDS011;18500;43.618;1.474;2024-01-06T17:33:46;838.25;;;763.50;;
31974;SDS011;18500;43.618;1.474;2024-01-06T17:36:12;708.45;;;652.65;;
31974;SDS011;18500;43.618;1.474;2024-01-06T17:38:39;746.67;;;681.75;;
31974;SDS011;18500;43.618;1.474;2024-01-06T17:41:05;750.17;;;688.13;;
31974;SDS011;18500;43.618;1.474;2024-01-06T17:43:30;853.75;;;776.90;;
31974;SDS011;18500;43.618;1.474;2024-01-06T17:45:56;692.25;;;635.35;;
31974;SDS011;18500;43.618;1.474;2024-01-06T17:48:22;859.53;;;780.25;;
31974;SDS011;18500;43.618;1.474;2024-01-06T17:50:47;932.28;;;844.05;;
31974;SDS011;18500;43.618;1.474;2024-01-06T17:53:13;921.65;;;833.38;;
31974;SDS011;18500;43.618;1.474;2024-01-06T17:55:39;932.22;;;844.55;;
31974;SDS011;18500;43.618;1.474;2024-01-06T17:58:04;1015.88;;;918.13;;
31974;SDS011;18500;43.618;1.474;2024-01-06T18:00:30;989.20;;;893.42;;
31974;SDS011;18500;43.618;1.474;2024-01-06T18:02:56;978.05;;;885.45;;
31974;SDS011;18500;43.618;1.474;2024-01-06T18:05:22;977.97;;;885.53;;
31974;SDS011;18500;43.618;1.474;2024-01-06T18:07:48;976.45;;;884.35;;
31974;SDS011;18500;43.618;1.474;2024-01-06T18:10:13;1028.10;;;927.28;;
31974;SDS011;18500;43.618;1.474;2024-01-06T18:12:40;984.30;;;890.50;;
31974;SDS011;18500;43.618;1.474;2024-01-06T18:15:06;1020.28;;;921.50;;
31974;SDS011;18500;43.618;1.474;2024-01-06T18:17:32;904.95;;;821.70;;
31974;SDS011;18500;43.618;1.474;2024-01-06T18:20:00;966.47;;;873.90;;
31974;SDS011;18500;43.618;1.474;2024-01-06T18:22:30;1034.50;;;935.03;;
31974;SDS011;18500;43.618;1.474;2024-01-06T18:24:56;949.97;;;864.83;;
31974;SDS011;18500;43.618;1.474;2024-01-06T18:27:22;1011.40;;;917.10;;
31974;SDS011;18500;43.618;1.474;2024-01-06T18:29:48;1041.35;;;939.95;;
31974;SDS011;18500;43.618;1.474;2024-01-06T18:32:14;967.90;;;877.78;;
31974;SDS011;18500;43.618;1.474;2024-01-06T18:34:39;1014.83;;;918.25;;
31974;SDS011;18500;43.618;1.474;2024-01-06T18:37:10;994.78;;;897.97;;
31974;SDS011;18500;43.618;1.474;2024-01-06T18:39:40;989.90;;;893.67;;
31974;SDS011;18500;43.618;1.474;2024-01-06T18:42:05;1044.50;;;941.60;;
31974;SDS011;18500;43.618;1.474;2024-01-06T18:44:34;1003.22;;;906.95;;
31974;SDS011;18500;43.618;1.474;2024-01-06T18:47:00;1048.15;;;942.05;;
31974;SDS011;18500;43.618;1.474;2024-01-06T18:49:25;1050.65;;;944.63;;
31974;SDS011;18500;43.618;1.474;2024-01-06T18:51:51;994.45;;;897.20;;
31974;SDS011;18500;43.618;1.474;2024-01-06T18:54:16;980.65;;;886.13;;
31974;SDS011;18500;43.618;1.474;2024-01-06T18:56:42;1033.50;;;926.80;;
31974;SDS011;18500;43.618;1.474;2024-01-06T18:59:08;991.58;;;894.80;;
31974;SDS011;18500;43.618;1.474;2024-01-06T19:01:33;1002.45;;;904.58;;
31974;SDS011;18500;43.618;1.474;2024-01-06T19:03:59;1036.00;;;934.95;;
31974;SDS011;18500;43.618;1.474;2024-01-06T19:06:25;1032.82;;;933.25;;
31974;SDS011;18500;43.618;1.474;2024-01-06T19:08:50;995.90;;;900.55;;
31974;SDS011;18500;43.618;1.474;2024-01-06T19:11:16;1000.75;;;904.95;;
31974;SDS011;18500;43.618;1.474;2024-01-06T19:13:42;1029.65;;;927.58;;
31974;SDS011;18500;43.618;1.474;2024-01-06T19:16:08;1038.03;;;934.45;;
31974;SDS011;18500;43.618;1.474;2024-01-06T19:18:34;1063.97;;;958.40;;
31974;SDS011;18500;43.618;1.474;2024-01-06T19:21:00;844.58;;;773.00;;
31974;SDS011;18500;43.618;1.474;2024-01-06T19:23:25;976.63;;;882.83;;
31974;SDS011;18500;43.618;1.474;2024-01-06T19:25:51;984.92;;;890.35;;
31974;SDS011;18500;43.618;1.474;2024-01-06T19:28:17;896.40;;;816.88;;
31974;SDS011;18500;43.618;1.474;2024-01-06T19:30:43;1025.32;;;921.33;;
31974;SDS011;18500;43.618;1.474;2024-01-06T19:33:09;1030.35;;;928.80;;
31974;SDS011;18500;43.618;1.474;2024-01-06T19:35:34;1047.72;;;947.25;;
31974;SDS011;18500;43.618;1.474;2024-01-06T19:38:00;1041.20;;;940.15;;
31974;SDS011;18500;43.618;1.474;2024-01-06T19:40:25;992.92;;;900.50;;
31974;SDS011;18500;43.618;1.474;2024-01-06T19:42:51;1065.70;;;958.30;;
31974;SDS011;18500;43.618;1.474;2024-01-06T19:45:17;1015.45;;;918.63;;
31974;SDS011;18500;43.618;1.474;2024-01-06T19:47:43;1050.35;;;946.05;;
31974;SDS011;18500;43.618;1.474;2024-01-06T19:50:09;1049.80;;;945.92;;
31974;SDS011;18500;43.618;1.474;2024-01-06T19:52:35;1021.85;;;920.45;;
31974;SDS011;18500;43.618;1.474;2024-01-06T19:55:01;1058.45;;;951.00;;
31974;SDS011;18500;43.618;1.474;2024-01-06T19:57:28;1009.67;;;908.83;;
31974;SDS011;18500;43.618;1.474;2024-01-06T19:59:57;938.42;;;850.75;;
31974;SDS011;18500;43.618;1.474;2024-01-06T20:02:23;1019.65;;;918.42;;
31974;SDS011;18500;43.618;1.474;2024-01-06T20:04:49;1031.22;;;928.33;;
31974;SDS011;18500;43.618;1.474;2024-01-06T20:07:15;947.03;;;858.28;;
31974;SDS011;18500;43.618;1.474;2024-01-06T20:09:44;1024.75;;;923.97;;
31974;SDS011;18500;43.618;1.474;2024-01-06T20:12:10;1033.72;;;930.50;;
31974;SDS011;18500;43.618;1.474;2024-01-06T20:14:36;1063.03;;;957.78;;
31974;SDS011;18500;43.618;1.474;2024-01-06T20:17:02;925.88;;;839.15;;
31974;SDS011;18500;43.618;1.474;2024-01-06T20:19:34;1012.95;;;911.38;;
31974;SDS011;18500;43.618;1.474;2024-01-06T20:21:59;1002.88;;;903.72;;
31974;SDS011;18500;43.618;1.474;2024-01-06T20:24:25;975.97;;;884.53;;
31974;SDS011;18500;43.618;1.474;2024-01-06T20:26:51;951.78;;;862.35;;
31974;SDS011;18500;43.618;1.474;2024-01-06T20:29:16;1021.25;;;920.08;;
31974;SDS011;18500;43.618;1.474;2024-01-06T20:31:42;992.55;;;896.60;;
31974;SDS011;18500;43.618;1.474;2024-01-06T20:34:08;925.33;;;842.60;;
31974;SDS011;18500;43.618;1.474;2024-01-06T20:36:33;1030.03;;;924.90;;
31974;SDS011;18500;43.618;1.474;2024-01-06T20:38:59;920.90;;;834.80;;
31974;SDS011;18500;43.618;1.474;2024-01-06T20:41:25;968.97;;;877.03;;
31974;SDS011;18500;43.618;1.474;2024-01-06T20:43:50;990.65;;;898.10;;
31974;SDS011;18500;43.618;1.474;2024-01-06T20:46:16;982.92;;;889.80;;
31974;SDS011;18500;43.618;1.474;2024-01-06T20:48:43;1001.95;;;906.25;;
31974;SDS011;18500;43.618;1.474;2024-01-06T20:51:10;929.33;;;840.72;;
31974;SDS011;18500;43.618;1.474;2024-01-06T20:53:36;917.92;;;834.17;;
31974;SDS011;18500;43.618;1.474;2024-01-06T20:56:02;988.35;;;894.00;;
31974;SDS011;18500;43.618;1.474;2024-01-06T20:58:28;924.33;;;837.33;;
31974;SDS011;18500;43.618;1.474;2024-01-06T21:00:54;821.47;;;749.15;;
31974;SDS011;18500;43.618;1.474;2024-01-06T21:03:19;901.13;;;822.47;;
31974;SDS011;18500;43.618;1.474;2024-01-06T21:05:45;822.65;;;753.95;;
31974;SDS011;18500;43.618;1.474;2024-01-06T21:08:11;910.72;;;832.25;;
31974;SDS011;18500;43.618;1.474;2024-01-06T21:10:36;832.67;;;763.53;;
31974;SDS011;18500;43.618;1.474;2024-01-06T21:13:02;843.17;;;772.00;;
31974;SDS011;18500;43.618;1.474;2024-01-06T21:15:28;834.05;;;764.53;;
31974;SDS011;18500;43.618;1.474;2024-01-06T21:17:55;775.67;;;711.83;;
31974;SDS011;18500;43.618;1.474;2024-01-06T21:20:20;828.60;;;758.85;;
31974;SDS011;18500;43.618;1.474;2024-01-06T21:22:46;899.55;;;821.42;;
31974;SDS011;18500;43.618;1.474;2024-01-06T21:25:17;832.78;;;760.55;;
31974;SDS011;18500;43.618;1.474;2024-01-06T21:27:46;805.05;;;739.42;;
31974;SDS011;18500;43.618;1.474;2024-01-06T21:30:12;834.17;;;763.50;;
31974;SDS011;18500;43.618;1.474;2024-01-06T21:32:38;740.75;;;679.97;;
31974;SDS011;18500;43.618;1.474;2024-01-06T21:35:04;747.92;;;684.85;;
31974;SDS011;18500;43.618;1.474;2024-01-06T21:37:31;748.28;;;684.28;;
31974;SDS011;18500;43.618;1.474;2024-01-06T21:39:57;861.92;;;787.60;;
31974;SDS011;18500;43.618;1.474;2024-01-06T21:42:29;880.87;;;803.67;;
31974;SDS011;18500;43.618;1.474;2024-01-06T21:44:54;838.17;;;767.38;;
31974;SDS011;18500;43.618;1.474;2024-01-06T21:47:21;855.88;;;784.72;;
31974;SDS011;18500;43.618;1.474;2024-01-06T21:49:50;862.20;;;790.15;;
31974;SDS011;18500;43.618;1.474;2024-01-06T21:52:16;821.85;;;752.22;;
31974;SDS011;18500;43.618;1.474;2024-01-06T21:54:42;805.13;;;737.67;;
31974;SDS011;18500;43.618;1.474;2024-01-06T21:57:08;862.28;;;786.13;;
31974;SDS011;18500;43.618;1.474;2024-01-06T21:59:34;904.40;;;826.00;;
31974;SDS011;18500;43.618;1.474;2024-01-06T22:01:59;968.80;;;880.97;;
31974;SDS011;18500;43.618;1.474;2024-01-06T22:04:25;923.00;;;836.30;;
31974;SDS011;18500;43.618;1.474;2024-01-06T22:06:50;882.60;;;803.35;;
31974;SDS011;18500;43.618;1.474;2024-01-06T22:09:16;882.83;;;804.28;;
31974;SDS011;18500;43.618;1.474;2024-01-06T22:11:43;868.75;;;791.45;;
31974;SDS011;18500;43.618;1.474;2024-01-06T22:14:09;911.83;;;831.00;;
